Time;durP1;ratioP1;P1;durP2;ratioP2;P2;SDS_P1;SDS_P2;PMS_P1;PMS_P2;Temp;Humidity;BMP_temperature;BMP_pressure;BME280_temperature;BME280_humidity;BME280_pressure;Samples;Min_cycle;Max_cycle;Signal;HPM_P1;HPM_P2
2023/01/29 00:01:43;;;;;;;52.25;28.00;;;1.00;99.90;;;;;;4092568;28;20040;-65
2023/01/29 00:03:44;;;;;;;50.40;27.50;;;1.00;99.90;;;;;;4097537;28;20343;-65
2023/01/29 00:05:44;;;;;;;47.92;26.35;;;1.00;99.90;;;;;;4096947;28;20054;-65
2023/01/29 00:07:45;;;;;;;51.40;28.73;;;1.00;99.90;;;;;;4095519;28;20031;-65
2023/01/29 00:09:46;;;;;;;53.72;28.33;;;1.00;99.90;;;;;;4092767;28;20139;-65
2023/01/29 00:11:46;;;;;;;47.00;26.50;;;1.00;99.90;;;;;;4097305;28;20055;-65
2023/01/29 00:13:47;;;;;;;47.38;25.90;;;1.00;99.90;;;;;;4095359;28;20031;-65
2023/01/29 00:15:55;;;;;;;45.33;25.00;;;1.00;99.90;;;;;;4095250;28;20378;-64
2023/01/29 00:17:55;;;;;;;48.70;25.25;;;1.00;99.90;;;;;;4092399;28;20486;-65
2023/01/29 00:19:56;;;;;;;45.13;24.95;;;1.00;99.90;;;;;;4095558;28;20106;-65
2023/01/29 00:21:57;;;;;;;47.15;25.95;;;0.90;99.90;;;;;;4099158;28;20039;-65
2023/01/29 00:23:58;;;;;;;52.20;28.55;;;0.90;99.90;;;;;;4093407;28;20043;-65
2023/01/29 00:25:59;;;;;;;52.00;27.17;;;0.90;99.90;;;;;;4092741;28;20027;-65
2023/01/29 00:27:59;;;;;;;52.75;27.33;;;0.90;99.90;;;;;;4080676;28;20082;-65
2023/01/29 00:30:11;;;;;;;54.35;28.42;;;0.90;99.90;;;;;;4099406;28;20023;-65
2023/01/29 00:32:12;;;;;;;52.80;29.42;;;0.90;99.90;;;;;;4094880;28;20039;-65
2023/01/29 00:34:13;;;;;;;52.15;26.85;;;0.90;99.90;;;;;;4096063;28;20386;-65
2023/01/29 00:36:15;;;;;;;51.00;27.67;;;0.90;99.90;;;;;;4092253;28;20035;-64
2023/01/29 00:38:16;;;;;;;49.97;27.23;;;0.90;99.90;;;;;;4095446;28;20766;-65
2023/01/29 00:40:17;;;;;;;49.63;26.52;;;0.90;99.90;;;;;;4093892;28;20066;-65
2023/01/29 00:46:55;;;;;;;50.88;27.27;;;0.90;99.90;;;;;;4096476;28;20037;-65
2023/01/29 00:48:56;;;;;;;47.65;24.80;;;0.90;99.90;;;;;;4093943;28;20035;-65
2023/01/29 00:50:56;;;;;;;50.08;26.63;;;0.90;99.90;;;;;;4098516;28;20102;-65
2023/01/29 00:52:57;;;;;;;51.30;26.52;;;0.80;99.90;;;;;;4095803;28;20043;-65
2023/01/29 00:54:59;;;;;;;49.80;25.77;;;0.80;99.90;;;;;;4096273;28;20039;-65
2023/01/29 00:57:01;;;;;;;49.30;26.73;;;0.80;99.90;;;;;;4093672;28;20367;-65
2023/01/29 00:59:02;;;;;;;50.45;27.00;;;0.80;99.90;;;;;;4094409;28;20552;-65
2023/01/29 01:01:03;;;;;;;51.47;27.20;;;0.80;99.90;;;;;;4094865;28;20047;-65
2023/01/29 01:03:07;;;;;;;48.80;26.40;;;0.80;99.90;;;;;;4094510;28;20039;-65
2023/01/29 01:05:12;;;;;;;49.47;26.90;;;0.80;99.90;;;;;;4096884;28;20099;-66
2023/01/29 01:07:13;;;;;;;52.95;28.45;;;0.80;99.90;;;;;;4093062;28;20035;-65
2023/01/29 01:11:33;;;;;;;51.72;27.33;;;0.80;99.90;;;;;;4094158;28;20101;-65
2023/01/29 01:13:33;;;;;;;51.72;27.70;;;0.90;99.90;;;;;;4093676;28;20133;-65
2023/01/29 01:15:37;;;;;;;49.67;26.90;;;0.80;99.90;;;;;;4093204;28;20070;-65
2023/01/29 01:17:38;;;;;;;50.72;28.08;;;0.90;99.90;;;;;;4098093;28;20043;-65
2023/01/29 01:19:38;;;;;;;51.70;28.98;;;0.90;99.90;;;;;;4095729;28;20558;-65
2023/01/29 01:21:44;;;;;;;54.15;28.23;;;0.90;99.90;;;;;;4093822;28;20114;-65
2023/01/29 01:23:44;;;;;;;55.92;29.42;;;0.90;99.90;;;;;;4093933;28;20039;-65
2023/01/29 01:25:45;;;;;;;53.65;28.70;;;0.90;99.90;;;;;;4095234;28;20038;-66
2023/01/29 01:27:46;;;;;;;51.67;28.23;;;0.90;99.90;;;;;;4097410;28;20106;-66
2023/01/29 01:29:47;;;;;;;55.17;29.17;;;0.80;99.90;;;;;;4099822;28;20094;-65
2023/01/29 01:31:47;;;;;;;55.80;29.67;;;0.80;99.90;;;;;;4095243;28;20102;-65
2023/01/29 01:33:50;;;;;;;54.42;29.02;;;0.80;99.90;;;;;;4094830;28;20027;-65
2023/01/29 01:35:50;;;;;;;55.40;30.48;;;0.80;99.90;;;;;;4092297;28;20727;-65
2023/01/29 01:37:51;;;;;;;50.72;27.35;;;0.80;99.90;;;;;;4098161;28;20095;-65
2023/01/29 01:39:56;;;;;;;54.08;28.30;;;0.80;99.90;;;;;;4094607;28;20641;-65
2023/01/29 01:41:57;;;;;;;50.70;27.02;;;0.80;99.90;;;;;;4096212;28;20039;-65
2023/01/29 01:44:00;;;;;;;51.00;28.20;;;0.70;99.90;;;;;;4079562;29;20032;-65
2023/01/29 01:46:00;;;;;;;48.63;25.88;;;0.70;99.90;;;;;;4077426;28;20032;-65
2023/01/29 01:48:13;;;;;;;52.88;26.83;;;0.70;99.90;;;;;;4094542;28;20035;-65
2023/01/29 01:50:22;;;;;;;50.47;26.15;;;0.70;99.90;;;;;;4083972;28;20100;-65
2023/01/29 01:52:23;;;;;;;51.78;26.52;;;0.80;99.90;;;;;;4091037;28;20059;-65
2023/01/29 01:54:27;;;;;;;52.42;27.58;;;0.80;99.90;;;;;;4089714;28;20114;-65
2023/01/29 01:56:39;;;;;;;50.85;27.38;;;0.80;99.90;;;;;;4088693;28;20128;-65
2023/01/29 01:58:45;;;;;;;50.60;26.50;;;0.80;99.90;;;;;;4085493;28;20035;-65
2023/01/29 02:00:46;;;;;;;52.38;27.45;;;0.80;99.90;;;;;;4089932;29;20418;-65
2023/01/29 02:10:11;;;;;;;46.78;24.55;;;0.90;99.90;;;;;;4095824;28;20051;-65
2023/01/29 02:12:14;;;;;;;46.45;24.67;;;0.90;99.90;;;;;;4096577;28;20043;-65
2023/01/29 02:14:15;;;;;;;46.40;24.33;;;0.90;99.90;;;;;;4094850;28;20122;-65
2023/01/29 02:16:15;;;;;;;51.88;26.23;;;0.90;99.90;;;;;;4095412;28;20059;-64
2023/01/29 02:18:20;;;;;;;47.95;25.30;;;0.90;99.90;;;;;;4097781;28;20031;-65
2023/01/29 02:20:30;;;;;;;47.10;25.27;;;0.90;99.90;;;;;;4096026;28;20043;-65
2023/01/29 02:22:54;;;;;;;45.65;24.77;;;0.90;99.90;;;;;;4102020;28;20484;-65
2023/01/29 02:24:54;;;;;;;51.50;26.73;;;0.90;99.90;;;;;;4097045;28;20454;-66
2023/01/29 02:27:13;;;;;;;51.50;25.98;;;0.90;99.90;;;;;;4097548;28;20064;-65
2023/01/29 02:29:29;;;;;;;46.67;25.88;;;0.90;99.90;;;;;;4094090;28;20063;-65
2023/01/29 02:31:33;;;;;;;45.30;24.98;;;1.00;99.90;;;;;;4098892;28;20054;-65
2023/01/29 02:33:58;;;;;;;44.50;24.55;;;0.90;99.90;;;;;;4097717;28;20664;-65
2023/01/29 02:36:19;;;;;;;44.90;24.13;;;0.90;99.90;;;;;;4094404;28;20090;-65
2023/01/29 02:38:37;;;;;;;41.70;23.05;;;0.90;99.90;;;;;;4098274;28;20469;-65
2023/01/29 02:40:53;;;;;;;45.80;25.02;;;0.90;99.90;;;;;;4094572;28;20039;-65
2023/01/29 02:43:29;;;;;;;45.15;24.52;;;0.90;99.90;;;;;;4094806;28;20118;-65
2023/01/29 02:45:38;;;;;;;47.45;23.98;;;1.00;99.90;;;;;;4076420;28;20051;-65
2023/01/29 02:48:00;;;;;;;46.10;25.23;;;1.00;99.90;;;;;;4096788;28;20442;-65
2023/01/29 02:50:12;;;;;;;44.15;24.15;;;1.00;99.90;;;;;;4100200;28;20031;-65
2023/01/29 02:52:33;;;;;;;46.38;24.98;;;1.00;99.90;;;;;;4100291;28;20067;-65
2023/01/29 02:55:01;;;;;;;43.72;24.42;;;1.00;99.90;;;;;;4098820;28;20043;-65
2023/01/29 02:57:23;;;;;;;46.65;24.85;;;1.00;99.90;;;;;;4094636;28;20051;-65
2023/01/29 02:59:33;;;;;;;43.97;24.83;;;1.00;99.90;;;;;;4095841;28;20039;-65
2023/01/29 03:01:52;;;;;;;45.90;23.88;;;1.00;99.90;;;;;;4094823;28;20043;-65
2023/01/29 03:03:57;;;;;;;50.05;26.45;;;1.00;99.90;;;;;;4095598;28;20062;-65
2023/01/29 03:06:17;;;;;;;44.03;23.15;;;1.00;99.90;;;;;;4096071;28;20110;-65
2023/01/29 03:08:35;;;;;;;43.90;23.30;;;1.00;99.90;;;;;;4094593;28;20447;-65
2023/01/29 03:10:42;;;;;;;43.00;23.55;;;1.00;99.90;;;;;;4096181;28;20051;-65
2023/01/29 03:12:49;;;;;;;44.33;24.35;;;1.00;99.90;;;;;;4096832;28;20552;-65
2023/01/29 03:17:10;;;;;;;45.40;23.95;;;0.90;99.90;;;;;;4094632;28;20035;-65
2023/01/29 03:19:40;;;;;;;46.72;24.73;;;0.90;99.90;;;;;;4096333;28;20058;-64
2023/01/29 03:21:58;;;;;;;42.53;23.20;;;0.90;99.90;;;;;;4087904;28;20509;-65
2023/01/29 03:33:27;;;;;;;;;;;0.90;99.90;;;;;;4094523;28;20043;-65
2023/01/29 03:35:35;;;;;;;40.58;21.38;;;0.90;99.90;;;;;;4095701;28;20006;-65
2023/01/29 03:37:44;;;;;;;43.53;24.52;;;0.80;99.90;;;;;;4096145;28;20479;-65
2023/01/29 03:39:44;;;;;;;41.70;23.23;;;0.80;99.90;;;;;;4093272;28;20043;-65
2023/01/29 03:41:58;;;;;;;40.30;21.55;;;0.90;99.90;;;;;;4094120;28;20114;-65
2023/01/29 03:44:16;;;;;;;43.60;22.08;;;0.80;99.90;;;;;;4096087;28;20058;-65
2023/01/29 03:46:28;;;;;;;45.75;23.95;;;0.80;99.90;;;;;;4094251;28;20559;-66
2023/01/29 03:48:39;;;;;;;45.20;23.63;;;0.80;99.90;;;;;;4099701;28;20027;-66
2023/01/29 03:50:51;;;;;;;40.53;21.63;;;0.90;99.90;;;;;;4098288;28;20442;-65
2023/01/29 03:53:01;;;;;;;43.47;22.65;;;0.90;99.90;;;;;;4096476;28;20032;-65
2023/01/29 03:55:15;;;;;;;43.13;23.38;;;0.90;99.90;;;;;;4095992;28;20118;-65
2023/01/29 03:57:26;;;;;;;41.90;22.83;;;0.90;99.90;;;;;;4094178;28;20027;-65
2023/01/29 03:59:43;;;;;;;40.13;21.75;;;0.90;99.90;;;;;;4098336;28;20090;-65
2023/01/29 04:01:56;;;;;;;44.03;22.85;;;0.90;99.90;;;;;;4094933;28;20036;-66
2023/01/29 04:04:10;;;;;;;42.05;22.08;;;0.90;99.90;;;;;;4095523;28;20773;-65
2023/01/29 04:06:16;;;;;;;45.40;23.50;;;0.90;99.90;;;;;;4095877;28;20039;-65
2023/01/29 04:08:23;;;;;;;40.10;21.90;;;0.90;99.90;;;;;;4094601;28;20072;-65
2023/01/29 04:10:26;;;;;;;42.15;22.65;;;0.90;99.90;;;;;;4094336;28;20102;-65
2023/01/29 04:12:43;;;;;;;44.85;23.48;;;0.90;99.90;;;;;;4099572;28;20108;-65
2023/01/29 04:14:45;;;;;;;46.65;23.35;;;0.90;99.90;;;;;;4094777;28;20510;-65
2023/01/29 04:16:50;;;;;;;46.42;24.92;;;0.90;99.90;;;;;;4094955;28;20036;-65
2023/01/29 04:18:53;;;;;;;45.13;24.08;;;0.90;99.90;;;;;;4095191;28;20059;-65
2023/01/29 04:20:54;;;;;;;45.95;24.42;;;0.90;99.90;;;;;;4095021;28;20114;-65
2023/01/29 04:22:54;;;;;;;43.47;22.80;;;0.90;99.90;;;;;;4099304;28;20054;-65
2023/01/29 04:25:01;;;;;;;46.10;24.42;;;0.90;99.90;;;;;;4094686;28;20044;-65
2023/01/29 04:27:06;;;;;;;46.58;24.85;;;0.90;99.90;;;;;;4076108;29;20035;-66
2023/01/29 04:29:33;;;;;;;45.22;23.80;;;0.80;99.90;;;;;;4095949;28;20618;-65
2023/01/29 04:31:59;;;;;;;46.85;23.17;;;0.90;99.90;;;;;;4094136;28;20082;-65
2023/01/29 04:34:18;;;;;;;42.28;22.90;;;0.90;99.90;;;;;;4082041;28;20057;-65
2023/01/29 04:36:40;;;;;;;46.03;23.35;;;0.80;99.90;;;;;;4095337;28;20039;-65
2023/01/29 04:38:46;;;;;;;46.00;23.70;;;0.80;99.90;;;;;;4094390;28;20033;-65
2023/01/29 04:40:50;;;;;;;42.53;23.50;;;0.80;99.90;;;;;;4096175;28;20479;-65
2023/01/29 04:43:07;;;;;;;47.22;24.10;;;0.80;99.90;;;;;;4095033;28;20034;-65
2023/01/29 04:45:18;;;;;;;43.28;22.63;;;0.80;99.90;;;;;;4092306;28;20059;-66
2023/01/29 04:47:27;;;;;;;48.75;24.13;;;0.80;99.90;;;;;;4095894;28;20407;-65
2023/01/29 04:49:52;;;;;;;47.53;25.08;;;0.80;99.90;;;;;;4097446;28;20038;-65
2023/01/29 04:52:14;;;;;;;47.97;25.17;;;0.90;99.90;;;;;;4095071;28;20067;-64
2023/01/29 04:54:24;;;;;;;43.38;23.25;;;0.90;99.90;;;;;;4097476;28;20090;-65
2023/01/29 04:56:29;;;;;;;47.42;24.10;;;0.80;99.90;;;;;;4090240;28;20039;-65
2023/01/29 04:58:40;;;;;;;44.75;23.65;;;0.90;99.90;;;;;;4094761;28;20179;-65
2023/01/29 05:00:43;;;;;;;41.83;22.40;;;0.90;99.90;;;;;;4091063;28;20117;-65
2023/01/29 05:02:44;;;;;;;48.47;24.10;;;0.90;99.90;;;;;;4095257;28;20038;-65
2023/01/29 05:04:47;;;;;;;45.85;24.88;;;0.90;99.90;;;;;;4092391;28;20450;-64
2023/01/29 05:06:48;;;;;;;43.90;23.90;;;0.90;99.90;;;;;;4087991;28;20395;-65
2023/01/29 05:08:50;;;;;;;45.38;24.08;;;1.00;99.90;;;;;;4097506;28;20051;-65
2023/01/29 05:10:53;;;;;;;47.30;23.75;;;1.00;99.90;;;;;;4095335;28;20058;-65
2023/01/29 05:13:02;;;;;;;48.85;25.10;;;1.00;99.90;;;;;;4093724;28;20035;-64
2023/01/29 05:15:10;;;;;;;45.83;23.83;;;1.00;99.90;;;;;;4093850;28;20441;-66
2023/01/29 05:17:17;;;;;;;46.42;25.05;;;1.00;99.90;;;;;;4094820;28;20042;-65
2023/01/29 05:19:17;;;;;;;49.97;25.58;;;1.00;99.90;;;;;;4093904;28;20506;-65
2023/01/29 05:21:19;;;;;;;48.03;25.15;;;1.00;99.90;;;;;;4091913;28;20051;-64
2023/01/29 05:23:21;;;;;;;45.23;23.67;;;1.10;99.90;;;;;;4095048;28;20043;-65
2023/01/29 05:25:25;;;;;;;49.28;25.52;;;1.00;99.90;;;;;;4094300;28;20283;-64
2023/01/29 05:29:54;;;;;;;48.80;24.77;;;1.00;99.90;;;;;;4094264;28;20067;-65
2023/01/29 05:31:54;;;;;;;47.13;24.98;;;1.10;99.90;;;;;;4093106;28;20553;-65
2023/01/29 05:33:55;;;;;;;52.60;27.02;;;1.00;99.90;;;;;;4094650;28;20043;-64
2023/01/29 05:35:58;;;;;;;48.15;26.40;;;1.00;99.90;;;;;;4092156;28;20039;-65
2023/01/29 05:37:58;;;;;;;50.67;26.25;;;0.90;99.90;;;;;;4097126;28;20452;-64
2023/01/29 05:39:59;;;;;;;55.75;27.67;;;0.90;99.90;;;;;;4096981;28;20038;-65
2023/01/29 05:41:59;;;;;;;49.13;26.63;;;0.90;99.90;;;;;;4095239;28;20454;-65
2023/01/29 05:44:00;;;;;;;50.42;26.45;;;0.90;99.90;;;;;;4097107;28;20419;-65
2023/01/29 05:46:01;;;;;;;47.17;24.85;;;0.90;99.90;;;;;;4092475;28;20695;-65
2023/01/29 05:48:01;;;;;;;51.88;26.67;;;0.90;99.90;;;;;;4099017;28;20027;-65
2023/01/29 05:50:02;;;;;;;51.15;26.17;;;0.90;99.90;;;;;;4098007;28;20047;-66
2023/01/29 05:52:03;;;;;;;46.92;23.70;;;0.90;99.90;;;;;;4099449;28;20450;-65
2023/01/29 05:54:04;;;;;;;50.80;26.95;;;0.90;99.90;;;;;;4092973;28;20035;-65
2023/01/29 05:56:05;;;;;;;47.80;25.33;;;1.00;99.90;;;;;;4092155;28;20170;-65
2023/01/29 05:58:05;;;;;;;46.47;24.13;;;1.00;99.90;;;;;;4096505;28;20035;-65
2023/01/29 06:00:07;;;;;;;46.53;24.77;;;1.00;99.90;;;;;;4096897;28;20032;-65
2023/01/29 06:02:08;;;;;;;48.45;25.88;;;1.10;99.90;;;;;;4097808;28;20114;-65
2023/01/29 06:04:09;;;;;;;50.55;25.70;;;1.00;99.90;;;;;;4097316;28;20047;-65
2023/01/29 06:06:09;;;;;;;52.33;27.73;;;1.10;99.90;;;;;;4096739;28;20047;-65
2023/01/29 06:08:10;;;;;;;47.67;25.73;;;1.10;99.90;;;;;;4097068;28;20118;-65
2023/01/29 06:10:14;;;;;;;45.35;24.95;;;1.20;99.90;;;;;;4094036;28;20046;-65
2023/01/29 06:12:14;;;;;;;51.58;24.52;;;1.20;99.90;;;;;;4095587;28;20395;-65
2023/01/29 06:14:15;;;;;;;51.72;25.45;;;1.20;99.90;;;;;;4097033;28;20041;-65
2023/01/29 06:16:16;;;;;;;49.95;25.08;;;1.20;99.90;;;;;;4094820;28;20433;-64
2023/01/29 06:18:16;;;;;;;49.45;25.85;;;1.20;99.90;;;;;;4100112;28;20614;-65
2023/01/29 06:20:17;;;;;;;48.03;24.88;;;1.20;99.90;;;;;;4098157;28;20081;-65
2023/01/29 06:22:18;;;;;;;51.55;27.48;;;1.20;99.90;;;;;;4090349;28;20039;-65
2023/01/29 06:24:18;;;;;;;49.88;25.80;;;1.30;99.90;;;;;;4092894;28;20089;-65
2023/01/29 06:26:19;;;;;;;49.30;25.80;;;1.30;99.90;;;;;;4077411;28;20090;-66
2023/01/29 06:28:19;;;;;;;55.85;27.88;;;1.20;99.90;;;;;;4091115;28;20031;-65
2023/01/29 06:30:20;;;;;;;57.35;28.42;;;1.30;99.90;;;;;;4092929;28;20031;-64
2023/01/29 06:32:21;;;;;;;61.13;28.30;;;1.20;99.90;;;;;;4100138;28;20035;-65
2023/01/29 06:34:21;;;;;;;55.17;27.33;;;1.20;99.90;;;;;;4095413;28;20044;-64
2023/01/29 06:36:22;;;;;;;57.58;29.75;;;1.20;99.90;;;;;;4094434;28;20126;-65
2023/01/29 06:38:23;;;;;;;56.03;28.17;;;1.10;99.90;;;;;;4095582;28;20455;-65
2023/01/29 06:40:23;;;;;;;50.60;26.85;;;1.10;99.90;;;;;;4095807;28;20047;-65
2023/01/29 06:42:26;;;;;;;58.58;28.25;;;1.20;99.90;;;;;;4095161;28;20059;-65
2023/01/29 06:44:27;;;;;;;55.30;28.52;;;1.10;99.90;;;;;;4083263;29;20436;-65
2023/01/29 06:46:27;;;;;;;63.85;31.00;;;1.10;99.90;;;;;;4094046;28;20031;-65
2023/01/29 06:48:29;;;;;;;59.35;30.52;;;1.00;99.90;;;;;;4095111;28;20038;-65
2023/01/29 06:50:30;;;;;;;56.07;29.60;;;0.90;99.90;;;;;;4094894;28;20048;-65
2023/01/29 06:52:30;;;;;;;64.32;29.02;;;0.90;99.90;;;;;;4096041;28;20306;-65
2023/01/29 06:54:31;;;;;;;57.17;28.60;;;0.90;99.90;;;;;;4095397;28;20095;-65
2023/01/29 06:56:31;;;;;;;56.97;30.60;;;0.90;99.90;;;;;;4094463;28;20035;-65
2023/01/29 06:58:34;;;;;;;61.45;29.65;;;0.90;99.90;;;;;;4095368;28;20027;-65
2023/01/29 07:00:35;;;;;;;55.50;28.52;;;0.90;99.90;;;;;;4095284;28;20043;-65
2023/01/29 07:02:36;;;;;;;60.15;28.92;;;0.90;99.90;;;;;;4085335;28;20558;-65
2023/01/29 07:04:37;;;;;;;57.28;28.70;;;1.00;99.90;;;;;;4092505;28;20054;-65
2023/01/29 07:06:39;;;;;;;58.83;30.05;;;1.00;99.90;;;;;;4095828;28;20035;-65
2023/01/29 07:08:39;;;;;;;58.50;29.70;;;1.00;99.90;;;;;;4087565;28;20059;-65
2023/01/29 07:10:40;;;;;;;57.17;29.27;;;1.00;99.90;;;;;;4091067;28;20031;-65
2023/01/29 07:12:40;;;;;;;55.60;28.92;;;1.10;99.90;;;;;;4091939;28;20130;-65
2023/01/29 07:14:41;;;;;;;62.47;30.75;;;1.10;99.90;;;;;;4089977;28;20044;-65
2023/01/29 07:16:42;;;;;;;61.00;30.38;;;1.10;99.90;;;;;;4092258;28;20042;-68
2023/01/29 07:18:42;;;;;;;65.97;33.03;;;1.10;99.90;;;;;;4096153;28;20043;-66
2023/01/29 07:20:43;;;;;;;61.25;29.48;;;1.10;99.90;;;;;;4094893;28;20131;-67
2023/01/29 07:22:43;;;;;;;65.65;32.65;;;1.10;99.90;;;;;;4096813;28;20066;-67
2023/01/29 07:24:44;;;;;;;60.25;30.40;;;1.00;99.90;;;;;;4093689;28;20122;-67
2023/01/29 07:26:45;;;;;;;60.50;30.40;;;1.10;99.90;;;;;;4093793;28;20048;-67
2023/01/29 07:28:45;;;;;;;58.25;30.10;;;1.10;99.90;;;;;;4095025;28;20035;-67
2023/01/29 07:30:46;;;;;;;60.33;30.88;;;1.20;99.90;;;;;;4095921;28;20039;-66
2023/01/29 07:32:46;;;;;;;59.13;29.42;;;1.20;99.90;;;;;;4094475;28;20028;-67
2023/01/29 07:34:47;;;;;;;62.20;28.98;;;1.20;99.90;;;;;;4096081;28;20043;-68
2023/01/29 07:36:48;;;;;;;62.22;31.75;;;1.20;99.90;;;;;;4091955;28;20048;-68
2023/01/29 07:38:50;;;;;;;62.03;30.90;;;1.20;99.90;;;;;;4077229;28;20448;-68
2023/01/29 07:40:53;;;;;;;63.85;31.13;;;1.20;99.90;;;;;;4090348;28;20390;-68
2023/01/29 07:42:59;;;;;;;61.88;30.98;;;1.20;99.90;;;;;;4092087;28;20044;-67
2023/01/29 07:44:59;;;;;;;52.78;28.83;;;1.20;99.90;;;;;;4079017;28;20036;-68
2023/01/29 07:47:00;;;;;;;58.42;30.00;;;1.30;99.90;;;;;;4090559;28;20118;-68
2023/01/29 07:49:01;;;;;;;59.33;29.33;;;1.30;99.90;;;;;;4094619;28;20500;-67
2023/01/29 07:51:01;;;;;;;51.65;26.80;;;1.30;99.90;;;;;;4094745;28;20039;-67
2023/01/29 07:53:02;;;;;;;58.13;28.65;;;1.30;99.90;;;;;;4090734;28;20038;-66
2023/01/29 07:55:03;;;;;;;59.33;30.08;;;1.30;99.90;;;;;;4093536;28;20024;-69
2023/01/29 07:57:04;;;;;;;62.35;30.42;;;1.20;99.90;;;;;;4093163;28;20094;-67
2023/01/29 07:59:04;;;;;;;61.25;30.80;;;1.30;99.90;;;;;;4094088;28;20093;-66
2023/01/29 08:01:06;;;;;;;63.15;31.88;;;1.20;99.90;;;;;;4091996;28;20039;-67
2023/01/29 08:03:10;;;;;;;65.88;33.45;;;1.30;99.90;;;;;;4093406;28;20083;-66
2023/01/29 08:05:11;;;;;;;63.17;32.83;;;1.20;99.90;;;;;;4093558;28;20118;-67
2023/01/29 08:07:12;;;;;;;63.17;31.88;;;1.30;99.90;;;;;;4095810;28;20081;-67
2023/01/29 08:09:12;;;;;;;66.40;32.75;;;1.20;99.90;;;;;;4094746;28;20051;-66
2023/01/29 08:11:14;;;;;;;59.90;31.55;;;1.20;99.90;;;;;;4094924;28;20506;-66
2023/01/29 08:13:14;;;;;;;63.65;31.35;;;1.20;99.90;;;;;;4090216;28;20121;-66
2023/01/29 08:15:15;;;;;;;59.55;29.63;;;1.30;99.90;;;;;;4091637;28;20059;-66
2023/01/29 08:17:15;;;;;;;60.92;30.63;;;1.30;99.90;;;;;;4092641;28;20038;-66
2023/01/29 08:19:16;;;;;;;60.97;32.05;;;1.30;99.90;;;;;;4091481;28;20050;-66
2023/01/29 08:21:17;;;;;;;60.33;30.90;;;1.30;99.90;;;;;;4091256;28;20572;-67
2023/01/29 08:23:17;;;;;;;62.15;30.38;;;1.30;99.90;;;;;;4097560;28;20188;-66
2023/01/29 08:25:18;;;;;;;59.75;30.50;;;1.30;99.90;;;;;;4094585;28;20035;-66
2023/01/29 08:27:19;;;;;;;60.28;30.35;;;1.30;99.90;;;;;;4092974;28;20057;-66
2023/01/29 08:29:20;;;;;;;66.68;33.08;;;1.30;99.90;;;;;;4093698;28;20047;-66
2023/01/29 08:31:21;;;;;;;60.95;30.98;;;1.30;99.90;;;;;;4091558;28;20051;-66
2023/01/29 08:33:22;;;;;;;70.00;34.75;;;1.30;99.90;;;;;;4096677;28;20034;-66
2023/01/29 08:35:22;;;;;;;62.70;31.58;;;1.30;99.90;;;;;;4087736;28;20043;-66
2023/01/29 08:37:23;;;;;;;60.58;31.48;;;1.30;99.90;;;;;;4094942;28;20059;-67
2023/01/29 08:39:23;;;;;;;59.65;31.77;;;1.30;99.90;;;;;;4092499;28;20039;-67
2023/01/29 08:41:24;;;;;;;66.15;33.85;;;1.30;99.90;;;;;;4091533;28;20031;-67
2023/01/29 08:43:24;;;;;;;68.03;32.53;;;1.30;99.90;;;;;;4088880;28;20031;-67
2023/01/29 08:45:25;;;;;;;64.05;32.03;;;1.30;99.90;;;;;;4090935;28;20046;-67
2023/01/29 08:47:26;;;;;;;69.40;32.42;;;1.30;99.90;;;;;;4090949;28;20040;-67
2023/01/29 08:49:26;;;;;;;61.97;31.25;;;1.40;99.90;;;;;;4083738;28;20043;-68
2023/01/29 08:51:27;;;;;;;61.33;31.10;;;1.40;99.90;;;;;;4079094;28;20027;-68
2023/01/29 08:53:27;;;;;;;65.68;32.13;;;1.40;99.90;;;;;;4090129;28;20039;-68
2023/01/29 08:55:28;;;;;;;64.32;31.73;;;1.40;99.90;;;;;;4091542;28;20043;-67
2023/01/29 08:57:29;;;;;;;66.95;32.33;;;1.40;99.90;;;;;;4094881;28;20049;-68
2023/01/29 08:59:29;;;;;;;73.47;36.80;;;1.40;99.90;;;;;;4088511;28;20103;-68
2023/01/29 09:01:30;;;;;;;70.80;34.17;;;1.50;99.90;;;;;;4087917;28;20042;-67
2023/01/29 09:03:30;;;;;;;63.50;31.00;;;1.40;99.90;;;;;;4093842;28;20073;-68
2023/01/29 09:05:31;;;;;;;62.63;31.20;;;1.40;99.90;;;;;;4094673;28;20111;-68
2023/01/29 09:07:32;;;;;;;64.60;32.80;;;1.40;99.90;;;;;;4096836;28;20042;-68
2023/01/29 09:09:32;;;;;;;59.33;30.38;;;1.40;99.90;;;;;;4097625;28;20133;-68
2023/01/29 09:11:33;;;;;;;67.95;33.08;;;1.40;99.90;;;;;;4091487;28;20047;-67
2023/01/29 09:13:34;;;;;;;71.85;33.75;;;1.40;99.90;;;;;;4092210;28;20031;-68
2023/01/29 09:15:34;;;;;;;64.72;33.17;;;1.40;99.90;;;;;;4092484;28;20043;-68
2023/01/29 09:17:35;;;;;;;67.20;33.67;;;1.40;99.90;;;;;;4090822;28;20475;-68
2023/01/29 09:19:35;;;;;;;64.30;32.97;;;1.40;99.90;;;;;;4095569;28;20031;-68
2023/01/29 09:21:36;;;;;;;62.78;32.13;;;1.40;99.90;;;;;;4094512;28;20032;-68
2023/01/29 09:23:36;;;;;;;62.28;32.25;;;1.40;99.90;;;;;;4099247;28;20115;-68
2023/01/29 09:25:37;;;;;;;61.67;31.75;;;1.40;99.90;;;;;;4092013;28;20102;-68
2023/01/29 09:27:38;;;;;;;70.90;35.65;;;1.40;99.90;;;;;;4091353;28;20039;-68
2023/01/29 09:29:38;;;;;;;74.07;35.53;;;1.40;99.90;;;;;;4088425;28;20123;-68
2023/01/29 09:31:39;;;;;;;67.97;33.72;;;1.40;99.90;;;;;;4091547;28;20042;-68
2023/01/29 09:33:39;;;;;;;69.63;35.72;;;1.40;99.90;;;;;;4093282;28;20525;-68
2023/01/29 09:35:41;;;;;;;66.72;33.35;;;1.40;99.90;;;;;;4085616;29;20048;-68
2023/01/29 09:37:45;;;;;;;71.72;36.47;;;1.40;99.90;;;;;;4092503;28;20036;-68
2023/01/29 09:39:46;;;;;;;72.43;36.80;;;1.40;99.90;;;;;;4096469;28;20110;-68
2023/01/29 09:42:04;;;;;;;68.65;34.90;;;1.40;99.90;;;;;;4086684;28;20075;-68
2023/01/29 09:44:34;;;;;;;67.65;33.92;;;1.40;99.90;;;;;;4083438;28;20047;-67
2023/01/29 09:46:39;;;;;;;69.50;33.67;;;1.40;99.90;;;;;;4073530;28;20039;-67
2023/01/29 09:48:41;;;;;;;62.10;31.90;;;1.50;99.90;;;;;;4091909;28;20078;-68
2023/01/29 09:50:45;;;;;;;69.43;33.13;;;1.50;99.90;;;;;;4088380;28;20392;-67
2023/01/29 09:52:52;;;;;;;67.05;34.65;;;1.40;99.90;;;;;;4088833;28;20317;-68
2023/01/29 09:55:21;;;;;;;75.65;35.92;;;1.40;99.90;;;;;;4092998;28;20035;-68
2023/01/29 09:57:33;;;;;;;66.85;33.78;;;1.50;99.90;;;;;;4091912;28;20098;-67
2023/01/29 09:59:33;;;;;;;66.80;34.78;;;1.50;99.90;;;;;;4090998;28;20059;-71
2023/01/29 10:01:58;;;;;;;65.53;33.78;;;1.60;99.90;;;;;;4092020;28;20046;-70
2023/01/29 10:04:17;;;;;;;70.20;35.05;;;1.60;99.90;;;;;;4092960;28;20082;-70
2023/01/29 10:06:20;;;;;;;64.15;33.00;;;1.50;99.90;;;;;;4093806;28;20038;-70
2023/01/29 10:08:21;;;;;;;64.70;32.88;;;1.50;99.90;;;;;;4094126;28;20518;-69
2023/01/29 10:10:47;;;;;;;62.75;33.22;;;1.50;99.90;;;;;;4092008;28;20047;-70
2023/01/29 10:13:01;;;;;;;67.90;34.38;;;1.50;99.90;;;;;;4094368;28;20031;-70
2023/01/29 10:15:37;;;;;;;66.00;33.08;;;1.60;99.90;;;;;;4092371;28;20114;-71
2023/01/29 10:18:06;;;;;;;58.22;29.23;;;1.60;99.90;;;;;;4076844;28;20094;-70
2023/01/29 10:20:30;;;;;;;67.03;33.47;;;1.60;99.90;;;;;;4094584;28;20483;-71
2023/01/29 10:22:40;;;;;;;64.45;32.63;;;1.60;99.90;;;;;;4085327;28;20394;-70
2023/01/29 10:24:52;;;;;;;69.85;34.28;;;1.60;99.90;;;;;;4095705;28;20046;-69
2023/01/29 10:26:54;;;;;;;64.82;33.08;;;1.60;99.90;;;;;;4096623;28;20091;-69
2023/01/29 10:28:57;;;;;;;65.10;33.65;;;1.60;99.90;;;;;;4097482;28;20031;-69
2023/01/29 10:31:08;;;;;;;64.57;31.80;;;1.70;99.90;;;;;;4096010;28;20565;-69
2023/01/29 10:33:18;;;;;;;65.47;32.35;;;1.70;99.90;;;;;;4096670;28;20039;-69
2023/01/29 10:35:26;;;;;;;64.22;32.25;;;1.70;99.90;;;;;;4093015;28;20058;-70
2023/01/29 10:37:40;;;;;;;65.22;32.17;;;1.70;99.90;;;;;;4094010;28;20170;-70
2023/01/29 10:39:41;;;;;;;65.40;32.08;;;1.80;99.90;;;;;;4095537;28;20114;-71
2023/01/29 10:42:04;;;;;;;67.10;33.38;;;1.80;99.90;;;;;;4098050;28;20063;-71
2023/01/29 10:44:29;;;;;;;62.78;31.77;;;1.70;99.90;;;;;;4098431;28;20034;-70
2023/01/29 10:46:51;;;;;;;65.45;32.42;;;1.70;99.90;;;;;;4093207;28;20039;-70
2023/01/29 10:49:20;;;;;;;62.58;31.88;;;1.70;99.90;;;;;;4093397;28;20062;-70
2023/01/29 10:51:57;;;;;;;68.32;33.17;;;1.80;99.90;;;;;;4095057;28;20039;-70
2023/01/29 10:54:08;;;;;;;62.75;31.45;;;1.80;99.90;;;;;;4093733;28;20183;-70
2023/01/29 10:56:27;;;;;;;61.40;30.85;;;1.80;99.90;;;;;;4093960;28;20394;-70
2023/01/29 10:58:37;;;;;;;60.35;30.08;;;1.90;99.90;;;;;;4094824;28;20447;-69
2023/01/29 11:00:40;;;;;;;63.42;30.55;;;1.90;99.90;;;;;;4091360;28;20191;-71
2023/01/29 11:02:47;;;;;;;63.75;32.50;;;1.90;99.90;;;;;;4092553;28;20034;-71
2023/01/29 11:04:47;;;;;;;58.38;29.73;;;1.90;99.90;;;;;;4096456;28;20453;-69
2023/01/29 11:06:48;;;;;;;59.10;30.38;;;2.00;99.90;;;;;;4095223;28;20035;-69
2023/01/29 11:08:55;;;;;;;58.10;30.48;;;2.00;99.90;;;;;;4095673;28;20051;-70
2023/01/29 11:11:16;;;;;;;60.53;31.27;;;2.00;99.90;;;;;;4092473;28;20027;-69
2023/01/29 11:13:17;;;;;;;60.22;30.50;;;2.10;99.90;;;;;;4092093;28;20051;-69
2023/01/29 11:15:18;;;;;;;60.28;30.52;;;2.10;99.90;;;;;;4091631;28;20078;-69